Nevskiy-31 — UCGM — position and weather

sailwx.info

Track history (hours):
 
Tides and Currents Weather Stations Pressure Air Temp Water Temp Dewpoint Dewpoint Depression Visibility Wind Speed Wind Dir Waves Ship Positions

Nevskiy-31

Last reported at 2014-Nov-27 12:10 UTC. Time now 2014-Dec-20 08:00 UTC.
Position N 59°57' E 030°24'.
Warning: this ship's position is 22 days out of date.

Length 111 m; draft 2.4 m.

Type: Cargo ship. MMSI: 273440320.

Date/timePositionNaut miles runAvg speedWind from/ knotsBaromVisibWave heightAir tempDewpointWater temp
2014-Nov-27 12:10N 59°57' E 030°24'3 5.4
2014-Nov-27 11:34N 59°57' E 030°17'2 0.8
2014-Nov-27 08:32N 59°58' E 030°13'0 0.0
2014-Nov-27 06:33N 59°58' E 030°13'0 0.0
2014-Nov-27 05:33N 59°58' E 030°13'0 0.0
2014-Nov-27 04:33N 59°58' E 030°13'0 0.0
2014-Nov-27 03:33N 59°58' E 030°13'0 0.0
2014-Nov-27 02:33N 59°58' E 030°13'1 1.2
2014-Nov-27 01:33N 59°58' E 030°11'2 0.1
2014-Nov-26 11:26N 59°57' E 030°07'4 4.5
2014-Nov-26 10:33N 59°57' E 030°15'0 0.0
2014-Nov-26 09:32N 59°57' E 030°15'0 0.0
2014-Nov-26 08:32N 59°57' E 030°15'0 0.0
2014-Nov-26 07:32N 59°57' E 030°15'0 0.0
2014-Nov-26 06:24N 59°57' E 030°15'1 0.1
2014-Nov-25 19:33N 59°57' E 030°18'5 5.1
2014-Nov-25 18:31N 59°57' E 030°07'4 0.1
2014-Nov-23 18:12N 59°58' E 030°15'0 0.0
2014-Nov-22 22:07N 59°58' E 030°15'  
2014-Nov-20 09:32N 59°58' E 030°12'2 1.6
2014-Nov-20 08:33N 59°57' E 030°15'0 0.0
2014-Nov-20 06:22N 59°57' E 030°15'0 0.0
2014-Nov-20 05:33N 59°57' E 030°15'0 0.0
2014-Nov-20 04:33N 59°57' E 030°15'0 0.0
2014-Nov-20 03:32N 59°57' E 030°15'2 0.4
2014-Nov-19 21:28N 59°57' E 030°20'4 4.8
2014-Nov-19 20:32N 59°58' E 030°11'1 0.1
2014-Nov-19 01:33N 59°57' E 030°09'8 6.6
2014-Nov-19 00:24N 59°57' E 030°24'2 0.2
2014-Nov-18 15:30N 59°57' E 030°21'4 4.4
2014-Nov-18 14:33N 59°58' E 030°13'3 0.2
2014-Nov-18 00:06N 59°57' E 030°07'3 6.2
2014-Nov-17 23:33N 59°58' E 030°14'4 0.7
2014-Nov-17 18:18N 59°57' E 030°21'2 3.2
2014-Nov-17 17:33N 59°57' E 030°17'5 4.8
2014-Nov-17 16:33N 59°57' E 030°07'  
Track history (hours):
 
Tides and Currents Weather Stations Pressure Air Temp Water Temp Dewpoint Dewpoint Depression Visibility Wind Speed Wind Dir Waves Ship Positions

Nevskiy-31

Last reported at 2014-Nov-27 12:10 UTC. Time now 2014-Dec-20 08:00 UTC.
Position N 59°57' E 030°24'.
Warning: this ship's position is 22 days out of date.

Length 111 m; draft 2.4 m.

Type: Cargo ship. MMSI: 273440320.

Date/timePositionNaut miles runAvg speedWind from/ knotsBaromVisibWave heightAir tempDewpointWater temp
2014-Nov-27 12:10N 59°57' E 030°24'3 5.4
2014-Nov-27 11:34N 59°57' E 030°17'2 0.8
2014-Nov-27 08:32N 59°58' E 030°13'0 0.0
2014-Nov-27 06:33N 59°58' E 030°13'0 0.0
2014-Nov-27 05:33N 59°58' E 030°13'0 0.0
2014-Nov-27 04:33N 59°58' E 030°13'0 0.0
2014-Nov-27 03:33N 59°58' E 030°13'0 0.0
2014-Nov-27 02:33N 59°58' E 030°13'1 1.2
2014-Nov-27 01:33N 59°58' E 030°11'2 0.1
2014-Nov-26 11:26N 59°57' E 030°07'4 4.5
2014-Nov-26 10:33N 59°57' E 030°15'0 0.0
2014-Nov-26 09:32N 59°57' E 030°15'0 0.0
2014-Nov-26 08:32N 59°57' E 030°15'0 0.0
2014-Nov-26 07:32N 59°57' E 030°15'0 0.0
2014-Nov-26 06:24N 59°57' E 030°15'1 0.1
2014-Nov-25 19:33N 59°57' E 030°18'5 5.1
2014-Nov-25 18:31N 59°57' E 030°07'4 0.1
2014-Nov-23 18:12N 59°58' E 030°15'0 0.0
2014-Nov-22 22:07N 59°58' E 030°15'  
2014-Nov-20 09:32N 59°58' E 030°12'2 1.6
2014-Nov-20 08:33N 59°57' E 030°15'0 0.0
2014-Nov-20 06:22N 59°57' E 030°15'0 0.0
2014-Nov-20 05:33N 59°57' E 030°15'0 0.0
2014-Nov-20 04:33N 59°57' E 030°15'0 0.0
2014-Nov-20 03:32N 59°57' E 030°15'2 0.4
2014-Nov-19 21:28N 59°57' E 030°20'4 4.8
2014-Nov-19 20:32N 59°58' E 030°11'1 0.1
2014-Nov-19 01:33N 59°57' E 030°09'8 6.6
2014-Nov-19 00:24N 59°57' E 030°24'2 0.2
2014-Nov-18 15:30N 59°57' E 030°21'4 4.4
2014-Nov-18 14:33N 59°58' E 030°13'3 0.2
2014-Nov-18 00:06N 59°57' E 030°07'3 6.2
2014-Nov-17 23:33N 59°58' E 030°14'4 0.7
2014-Nov-17 18:18N 59°57' E 030°21'2 3.2
2014-Nov-17 17:33N 59°57' E 030°17'5 4.8
2014-Nov-17 16:33N 59°57' E 030°07'  

Dump ship's entire track history